Hermes — SY6064 — position and weather

sailwx.info

Track history (hours):
 
Tides and Currents Weather Stations Pressure Air Temp Water Temp Dewpoint Dewpoint Depression Visibility Wind Speed Wind Dir Waves Ship Positions

Hermes

Last reported at 2016-Apr-27 10:32 UTC. Time now 2016-May-03 23:57 UTC.
Position N 38°15' E 021°31'.

Length 27 m; draft 4.8 m.

Type: Tug. MMSI: 240391000.

Date/timePositionNaut miles runAvg speedWind from/ knotsBaromVisibWave heightAir tempDewpointWater temp
2016-Apr-27 10:32N 38°15' E 021°31'1110.9
2016-Apr-27 09:33N 38°16' E 021°17'10 9.9
2016-Apr-27 08:32N 38°18' E 021°05'  
2016-Apr-24 04:10N 38°26' E 021°04'5 8.6
2016-Apr-24 03:33N 38°21' E 021°04'8 8.3
2016-Apr-24 02:33N 38°16' E 021°12'10 9.9
2016-Apr-24 01:33N 38°15' E 021°25'  
2016-Apr-19 01:14N 38°15' E 021°44'0 0.0
2016-Apr-19 00:23N 38°15' E 021°44'0 0.0
2016-Apr-18 23:13N 38°15' E 021°44'0 0.0
2016-Apr-18 21:34N 38°15' E 021°44'0 0.0
2016-Apr-18 20:29N 38°15' E 021°44'0 0.0
2016-Apr-18 17:33N 38°15' E 021°44'0 0.0
2016-Apr-18 16:34N 38°15' E 021°44'0 0.0
2016-Apr-18 13:24N 38°15' E 021°44'0 0.0
2016-Apr-18 08:28N 38°15' E 021°44'0 0.0
2016-Apr-18 04:08N 38°15' E 021°44'0 0.0
2016-Apr-17 22:27N 38°15' E 021°44'  
Track history (hours):
 
Tides and Currents Weather Stations Pressure Air Temp Water Temp Dewpoint Dewpoint Depression Visibility Wind Speed Wind Dir Waves Ship Positions

Hermes

Last reported at 2016-Apr-27 10:32 UTC. Time now 2016-May-03 23:57 UTC.
Position N 38°15' E 021°31'.

Length 27 m; draft 4.8 m.

Type: Tug. MMSI: 240391000.

Date/timePositionNaut miles runAvg speedWind from/ knotsBaromVisibWave heightAir tempDewpointWater temp
2016-Apr-27 10:32N 38°15' E 021°31'1110.9
2016-Apr-27 09:33N 38°16' E 021°17'10 9.9
2016-Apr-27 08:32N 38°18' E 021°05'  
2016-Apr-24 04:10N 38°26' E 021°04'5 8.6
2016-Apr-24 03:33N 38°21' E 021°04'8 8.3
2016-Apr-24 02:33N 38°16' E 021°12'10 9.9
2016-Apr-24 01:33N 38°15' E 021°25'  
2016-Apr-19 01:14N 38°15' E 021°44'0 0.0
2016-Apr-19 00:23N 38°15' E 021°44'0 0.0
2016-Apr-18 23:13N 38°15' E 021°44'0 0.0
2016-Apr-18 21:34N 38°15' E 021°44'0 0.0
2016-Apr-18 20:29N 38°15' E 021°44'0 0.0
2016-Apr-18 17:33N 38°15' E 021°44'0 0.0
2016-Apr-18 16:34N 38°15' E 021°44'0 0.0
2016-Apr-18 13:24N 38°15' E 021°44'0 0.0
2016-Apr-18 08:28N 38°15' E 021°44'0 0.0
2016-Apr-18 04:08N 38°15' E 021°44'0 0.0
2016-Apr-17 22:27N 38°15' E 021°44'  

Dump ship's entire track history